Météo Nord-Pas-de-Calais   La météo au plus près de chez vous

Station météorologique

Observations météo à Montpellier-Aeroport (34154)

34154001 1 m Dernier relevé à 09:48
25°C
Humidité 63 % Vent 6.1 km/h 1020.3 hPa

Journée consultée

Mercredi 2 Septembre 2026

Synthèse de la journée

Périodes de référence en UTC

Température maximale

25°C

à 09:42

06h 06h

Température minimale

18°C

à 07:00

18h 18h

Rafale maximale

13 km/h

à 09:06

00h 00h

Précipitations

0 mm

Cumul quotidien

06h 06h

Ensoleillement

1h 40 mins

Durée quotidienne

00h 00h

Graphiques de la journée

Heure locale Réduire

Données détaillées

Relevés météo

Pas de 6 minutes Afficher les relevés infra-horaires
Relevés météo détaillés à Montpellier-Aeroport pour le Mercredi 2 Septembre 2026
Heure Température °C Point de rosée °C Humidité % Vent moyen (raf.), km/h Précipitations mm Température à 10 cm °C Température à 20 cm °C Température à 50 cm °C Température à 100 cm °C Visibilité m Hauteur neige cm Ensoleillement min Rayonnement global W/m² Pression hPa Nébulosité Octas
09:48 25 °C 15 °C 54 % 6 km/h (9 km/h) 0 mm0 mm 24.2 °C 24.4 °C 25.7 °C 24.7 °C 60000 m 0 cm 2 min 101.8 W/m² 1020.5 hPa
09:42 25 °C 16.2 °C 58 % 6 km/h (9 km/h) 0 mm0 mm 24.1 °C 24.4 °C 25.7 °C 24.7 °C 60000 m 0 cm 6 min 143.9 W/m² 1020.5 hPa
09:36 24.1 °C 15.8 °C 60 % 6 km/h (9 km/h) 0 mm0 mm 24 °C 24.3 °C 25.6 °C 24.7 °C 19840 m 0 cm 2 min 94.7 W/m² 1020.4 hPa
09:30 23.7 °C 16 °C 62 % 7 km/h (10 km/h) 0 mm0 mm 23.9 °C 24.4 °C 25.7 °C 24.7 °C 19840 m 0 cm 2 min 77.5 W/m² 1020.5 hPa
09:24 23.3 °C 15.4 °C 61 % 9 km/h (11 km/h) 0 mm0 mm 23.8 °C 24.4 °C 25.7 °C 24.7 °C 60000 m 0 cm 0 min 44 W/m² 1020.5 hPa
09:18 23.6 °C 15.6 °C 61 % 8 km/h (11 km/h) 0 mm0 mm 23.7 °C 24.3 °C 25.7 °C 24.7 °C 19710 m 0 cm 3 min 92.1 W/m² 1020.5 hPa
09:12 23.4 °C 15.4 °C 61 % 8 km/h (13 km/h) 0 mm0 mm 23.6 °C 24.3 °C 25.7 °C 24.7 °C 19460 m 0 cm 6 min 122.3 W/m² 1020.4 hPa
09:06 23 °C 15.3 °C 62 % 9 km/h (13 km/h) 0 mm0 mm 23.6 °C 24.3 °C 25.7 °C 24.7 °C 19740 m 0 cm 6 min 92.4 W/m² 1020.3 hPa
09:00 22.8 °C 15.4 °C 63 % 9 km/h (13 km/h) 0 mm0 mm 23.5 °C 24.4 °C 25.7 °C 24.7 °C 60000 m 0 cm 4 min 77.7 W/m² 1020.2 hPa
08:54 22.4 °C 15 °C 63 % 9 km/h (13 km/h) 0 mm0 mm 23.4 °C 24.4 °C 25.7 °C 24.7 °C 60000 m 0 cm 1 min 46.3 W/m² 1020.2 hPa
08:48 23.1 °C 15.7 °C 63 % 6 km/h (10 km/h) 0 mm0 mm 23.3 °C 24.4 °C 25.7 °C 24.7 °C 19670 m 0 cm 5 min 78.2 W/m² 1020.3 hPa
08:42 23.3 °C 15.9 °C 63 % 5 km/h (7 km/h) 0 mm0 mm 23.3 °C 24.4 °C 25.7 °C 24.7 °C 19520 m 0 cm 6 min 91.6 W/m² 1020.2 hPa
08:36 22.7 °C 15.3 °C 63 % 4 km/h (6 km/h) 0 mm0 mm 23.2 °C 24.4 °C 25.7 °C 24.7 °C 19980 m 0 cm 6 min 81.3 W/m² 1020.2 hPa
08:30 22.4 °C 16 °C 67 % 4 km/h (6 km/h) 0 mm0 mm 23.1 °C 24.4 °C 25.7 °C 24.7 °C 19140 m 0 cm 6 min 69.6 W/m² 1020.2 hPa
08:24 22.3 °C 16.1 °C 68 % 4 km/h (6 km/h) 0 mm0 mm 23.1 °C 24.4 °C 25.7 °C 24.7 °C 19280 m 0 cm 6 min 59.6 W/m² 1020.3 hPa
08:18 21.9 °C 15.7 °C 68 % 4 km/h (6 km/h) 0 mm0 mm 23 °C 24.4 °C 25.7 °C 24.7 °C 19810 m 0 cm 6 min 50.8 W/m² 1020.2 hPa
08:12 21.5 °C 15.1 °C 67 % 5 km/h (8 km/h) 0 mm0 mm 23 °C 24.5 °C 25.7 °C 24.7 °C 19900 m 0 cm 5 min 38.8 W/m² 1020.2 hPa
08:06 20.9 °C 15.2 °C 70 % 6 km/h (8 km/h) 0 mm0 mm 23 °C 24.4 °C 25.7 °C 24.7 °C 60000 m 0 cm 5 min 32.4 W/m² 1020.1 hPa
08:00 20.2 °C 15 °C 72 % 6 km/h (7 km/h) 0 mm0 mm 23 °C 24.5 °C 25.7 °C 24.7 °C 60000 m 0 cm 2 min 22.3 W/m² 1020.1 hPa
07:54 19.7 °C 14.7 °C 73 % 6 km/h (8 km/h) 0 mm0 mm 23 °C 24.5 °C 25.7 °C 24.7 °C 60000 m 0 cm 3 min 18.8 W/m² 1019.9 hPa
07:48 19.5 °C 15.2 °C 76 % 8 km/h (9 km/h) 0 mm0 mm 23 °C 24.6 °C 25.7 °C 24.7 °C 19970 m 0 cm 6 min 20.3 W/m² 1019.8 hPa
07:42 19 °C 15.1 °C 78 % 8 km/h (8 km/h) 0 mm0 mm 22.9 °C 24.6 °C 25.8 °C 24.7 °C 19870 m 0 cm 6 min 16.6 W/m² 1019.7 hPa
07:36 18.7 °C 14.8 °C 78 % 7 km/h (8 km/h) 0 mm0 mm 22.9 °C 24.6 °C 25.8 °C 24.7 °C 19850 m 0 cm 6 min 12.4 W/m² 1019.6 hPa
07:30 18.3 °C 14.6 °C 79 % 6 km/h (8 km/h) 0 mm0 mm 23 °C 24.6 °C 25.8 °C 24.7 °C 19770 m 0 cm 0 min 4.5 W/m² 1019.6 hPa
07:24 18.4 °C 14.5 °C 78 % 6 km/h (7 km/h) 0 mm0 mm 23 °C 24.7 °C 25.8 °C 24.7 °C 19890 m 0 cm 0 min 0 W/m² 1019.5 hPa
07:18 18.7 °C 14.6 °C 77 % 6 km/h (7 km/h) 0 mm0 mm 23 °C 24.7 °C 25.8 °C 24.7 °C 19590 m 0 cm 0 min 0 W/m² 1019.4 hPa
07:12 18.8 °C 14.7 °C 77 % 6 km/h (8 km/h) 0 mm0 mm 23 °C 24.7 °C 25.8 °C 24.7 °C 19400 m 0 cm 0 min 0 W/m² 1019.4 hPa
07:06 19 °C 14.7 °C 76 % 7 km/h (9 km/h) 0 mm0 mm 23.1 °C 24.7 °C 25.8 °C 24.7 °C 60000 m 0 cm 0 min 0 W/m² 1019.5 hPa
07:00 18.6 °C 14.7 °C 78 % 8 km/h (9 km/h) 0 mm0 mm 23 °C 24.7 °C 25.8 °C 24.7 °C 60000 m 0 cm 0 min 0 W/m² 1019.5 hPa
06:54 18.1 °C 14.6 °C 80 % 8 km/h (8 km/h) 0 mm0 mm 23.1 °C 24.7 °C 25.8 °C 24.7 °C 60000 m 0 cm 0 min 0 W/m² 1019.4 hPa
06:48 18.1 °C 14.6 °C 80 % 8 km/h (9 km/h) 0 mm0 mm 23.2 °C 24.8 °C 25.8 °C 24.7 °C 60000 m 0 cm 0 min 0 W/m² 1019.4 hPa
06:42 18.2 °C 14.5 °C 79 % 7 km/h (9 km/h) 0 mm0 mm 23.2 °C 24.8 °C 25.8 °C 24.8 °C 60000 m 0 cm 0 min 0 W/m² 1019.4 hPa
06:36 18.2 °C 14.5 °C 79 % 5 km/h (7 km/h) 0 mm0 mm 23.2 °C 24.8 °C 25.7 °C 24.7 °C 60000 m 0 cm 0 min 0 W/m² 1019.4 hPa
06:30 18.5 °C 14.8 °C 79 % 4 km/h (6 km/h) 0 mm0 mm 23.2 °C 24.8 °C 25.8 °C 24.7 °C 19880 m 0 cm 0 min 0 W/m² 1019.4 hPa
06:24 18.4 °C 14.7 °C 79 % 5 km/h (6 km/h) 0 mm0 mm 23.3 °C 24.9 °C 25.8 °C 24.8 °C 19880 m 0 cm 0 min 0 W/m² 1019.4 hPa
06:18 18.2 °C 14.9 °C 81 % 6 km/h (6 km/h) 0 mm0 mm 23.3 °C 24.9 °C 25.8 °C 24.8 °C 19540 m 0 cm 0 min 0 W/m² 1019.4 hPa
06:12 18.4 °C 14.9 °C 80 % 5 km/h (6 km/h) 0 mm0 mm 23.4 °C 24.9 °C 25.8 °C 24.7 °C 19600 m 0 cm 0 min 0 W/m² 1019.4 hPa
06:06 18.8 °C 15.1 °C 79 % 4 km/h (5 km/h) 0 mm0 mm 23.4 °C 24.9 °C 25.8 °C 24.7 °C 19940 m 0 cm 0 min 0 W/m² 1019.4 hPa
06:00 18.5 °C 15 °C 80 % 3 km/h (4 km/h) 0 mm0 mm 23.4 °C 24.9 °C 25.8 °C 24.7 °C 19690 m 0 cm 0 min 0 W/m² 1019.4 hPa
05:54 18.8 °C 14.9 °C 78 % 2 km/h (3 km/h) 0 mm0 mm 23.4 °C 25 °C 25.8 °C 24.7 °C 17780 m 0 cm 0 min 0 W/m² 1019.4 hPa
05:48 19.1 °C 14.8 °C 76 % 2 km/h (3 km/h) 0 mm0 mm 23.5 °C 25 °C 25.8 °C 24.8 °C 16070 m 0 cm 0 min 0 W/m² 1019.3 hPa
05:42 19.5 °C 14.9 °C 75 % 3 km/h (3 km/h) 0 mm0 mm 23.5 °C 25 °C 25.8 °C 24.7 °C 17560 m 0 cm 0 min 0 W/m² 1019.4 hPa
05:36 19.5 °C 15.2 °C 76 % 3 km/h (4 km/h) 0 mm0 mm 23.5 °C 25 °C 25.8 °C 24.7 °C 19850 m 0 cm 0 min 0 W/m² 1019.4 hPa
05:30 19.6 °C 15 °C 75 % 3 km/h (4 km/h) 0 mm0 mm 23.6 °C 25.1 °C 25.8 °C 24.7 °C 19670 m 0 cm 0 min 0 W/m² 1019.3 hPa
05:24 19.7 °C 15.1 °C 75 % 3 km/h (4 km/h) 0 mm0 mm 23.6 °C 25.1 °C 25.8 °C 24.7 °C 19540 m 0 cm 0 min 0 W/m² 1019.4 hPa
05:18 19.8 °C 14.8 °C 73 % 3 km/h (4 km/h) 0 mm0 mm 23.7 °C 25.1 °C 25.8 °C 24.7 °C 19950 m 0 cm 0 min 0 W/m² 1019.4 hPa
05:12 20.8 °C 14.9 °C 69 % 4 km/h (6 km/h) 0 mm0 mm 23.7 °C 25.1 °C 25.8 °C 24.7 °C 60000 m 0 cm 0 min 0 W/m² 1019.4 hPa
05:06 21.2 °C 15.1 °C 68 % 5 km/h (6 km/h) 0 mm0 mm 23.8 °C 25.2 °C 25.8 °C 24.8 °C 60000 m 0 cm 0 min 0 W/m² 1019.4 hPa
05:00 20.9 °C 15 °C 69 % 4 km/h (6 km/h) 0 mm0 mm 23.8 °C 25.2 °C 25.8 °C 24.7 °C 60000 m 0 cm 0 min 0 W/m² 1019.4 hPa
04:54 20.7 °C 15 °C 70 % 5 km/h (6 km/h) 0 mm0 mm 23.8 °C 25.2 °C 25.8 °C 24.8 °C 60000 m 0 cm 0 min 0 W/m² 1019.3 hPa
04:48 20.8 °C 14.9 °C 69 % 6 km/h (7 km/h) 0 mm0 mm 23.8 °C 25.2 °C 25.8 °C 24.8 °C 19880 m 0 cm 0 min 0 W/m² 1019.3 hPa
04:42 20.8 °C 14.7 °C 68 % 5 km/h (7 km/h) 0 mm0 mm 23.9 °C 25.2 °C 25.8 °C 24.7 °C 19810 m 0 cm 0 min 0 W/m² 1019.3 hPa
04:36 21.2 °C 15.1 °C 68 % 6 km/h (8 km/h) 0 mm0 mm 23.9 °C 25.3 °C 25.8 °C 24.8 °C 19940 m 0 cm 0 min 0 W/m² 1019.3 hPa
04:30 21.2 °C 15.3 °C 69 % 5 km/h (8 km/h) 0 mm0 mm 23.9 °C 25.3 °C 25.8 °C 24.8 °C 19910 m 0 cm 0 min 0 W/m² 1019.3 hPa
04:24 20.9 °C 15.2 °C 70 % 7 km/h (12 km/h) 0 mm0 mm 23.9 °C 25.3 °C 25.8 °C 24.8 °C 19040 m 0 cm 0 min 0 W/m² 1019.3 hPa
04:18 20.8 °C 15.3 °C 71 % 9 km/h (12 km/h) 0 mm0 mm 24 °C 25.3 °C 25.8 °C 24.7 °C 60000 m 0 cm 0 min 0 W/m² 1019.2 hPa
04:12 21 °C 15.3 °C 70 % 8 km/h (9 km/h) 0 mm0 mm 24 °C 25.3 °C 25.8 °C 24.7 °C 19990 m 0 cm 0 min 0 W/m² 1019.3 hPa
04:06 21.1 °C 15.2 °C 69 % 8 km/h (9 km/h) 0 mm0 mm 24 °C 25.4 °C 25.8 °C 24.7 °C 19990 m 0 cm 0 min 0 W/m² 1019.2 hPa
04:00 21.3 °C 15.2 °C 68 % 7 km/h (9 km/h) 0 mm0 mm 24 °C 25.4 °C 25.8 °C 24.7 °C 19860 m 0 cm 0 min 0 W/m² 1019.3 hPa
03:54 21.3 °C 15.4 °C 69 % 7 km/h (9 km/h) 0 mm0 mm 24.1 °C 25.4 °C 25.8 °C 24.7 °C 60000 m 0 cm 0 min 0 W/m² 1019.2 hPa
03:48 21.4 °C 15.2 °C 68 % 6 km/h (9 km/h) 0 mm0 mm 24.1 °C 25.5 °C 25.8 °C 24.7 °C 17420 m 0 cm 0 min 0 W/m² 1019.2 hPa
03:42 20.9 °C 15.2 °C 70 % 4 km/h (7 km/h) 0 mm0 mm 24.1 °C 25.5 °C 25.8 °C 24.7 °C 16640 m 0 cm 0 min 0 W/m² 1019.2 hPa
03:36 20.3 °C 14.4 °C 69 % 2 km/h (4 km/h) 0 mm0 mm 24.2 °C 25.5 °C 25.8 °C 24.7 °C 17350 m 0 cm 0 min 0 W/m² 1019.2 hPa
03:30 20.6 °C 14.7 °C 69 % 3 km/h (6 km/h) 0 mm0 mm 24.2 °C 25.5 °C 25.8 °C 24.7 °C 18640 m 0 cm 0 min 0 W/m² 1019.1 hPa
03:24 21 °C 15.1 °C 69 % 5 km/h (6 km/h) 0 mm0 mm 24.3 °C 25.5 °C 25.8 °C 24.7 °C 19670 m 0 cm 0 min 0 W/m² 1019.2 hPa
03:18 21 °C 15.1 °C 69 % 6 km/h (9 km/h) 0 mm0 mm 24.3 °C 25.6 °C 25.8 °C 24.7 °C 60000 m 0 cm 0 min 0 W/m² 1019.1 hPa
03:12 20.5 °C 15.1 °C 71 % 7 km/h (9 km/h) 0 mm0 mm 24.3 °C 25.6 °C 25.9 °C 24.8 °C 19720 m 0 cm 0 min 0 W/m² 1019.1 hPa
03:06 20.4 °C 15.6 °C 74 % 7 km/h (9 km/h) 0 mm0 mm 24.4 °C 25.6 °C 25.8 °C 24.7 °C 19660 m 0 cm 0 min 0 W/m² 1019.1 hPa
03:00 20.5 °C 15.7 °C 74 % 7 km/h (9 km/h) 0 mm0 mm 24.4 °C 25.7 °C 25.8 °C 24.8 °C 19580 m 0 cm 0 min 0 W/m² 1019 hPa 7 Octas
02:54 20.7 °C 15.9 °C 74 % 7 km/h (9 km/h) 0 mm0 mm 24.4 °C 25.7 °C 25.9 °C 24.8 °C 18690 m 0 cm 0 min 0 W/m² 1019 hPa
02:48 20.8 °C 16.8 °C 78 % 4 km/h (7 km/h) 0 mm0 mm 24.4 °C 25.7 °C 25.8 °C 24.7 °C 19010 m 0 cm 0 min 0 W/m² 1018.9 hPa
02:42 21 °C 16.8 °C 77 % 3 km/h (4 km/h) 0 mm0 mm 24.4 °C 25.7 °C 25.8 °C 24.7 °C 19890 m 0 cm 0 min 0 W/m² 1019.1 hPa
02:36 21.2 °C 15.7 °C 71 % 3 km/h (5 km/h) 0 mm0 mm 24.5 °C 25.7 °C 25.8 °C 24.7 °C 19750 m 0 cm 0 min 0 W/m² 1019.2 hPa
02:30 21.3 °C 15.6 °C 70 % 5 km/h (6 km/h) 0 mm0 mm 24.5 °C 25.7 °C 25.8 °C 24.7 °C 60000 m 0 cm 0 min 0 W/m² 1019.1 hPa
02:24 21.5 °C 15.6 °C 69 % 6 km/h (6 km/h) 0 mm0 mm 24.5 °C 25.8 °C 25.8 °C 24.7 °C 60000 m 0 cm 0 min 0 W/m² 1019.1 hPa
02:18 21.3 °C 15.6 °C 70 % 7 km/h (9 km/h) 0 mm0 mm 24.5 °C 25.8 °C 25.8 °C 24.8 °C 60000 m 0 cm 0 min 0 W/m² 1019.1 hPa
02:12 21.2 °C 15.7 °C 71 % 7 km/h (9 km/h) 0 mm0 mm 24.6 °C 25.8 °C 25.8 °C 24.7 °C 60000 m 0 cm 0 min 0 W/m² 1019.4 hPa
02:06 21.7 °C 15.8 °C 69 % 7 km/h (9 km/h) 0 mm0 mm 24.6 °C 25.8 °C 25.8 °C 24.7 °C 19970 m 0 cm 0 min 0 W/m² 1019.4 hPa
02:00 22.4 °C 15.3 °C 64 % 8 km/h (10 km/h) 0 mm0 mm 24.6 °C 25.9 °C 25.8 °C 24.8 °C 19970 m 0 cm 0 min 0 W/m² 1019.3 hPa
01:54 22.1 °C 15.4 °C 66 % 8 km/h (10 km/h) 0 mm0 mm 24.6 °C 25.9 °C 25.8 °C 24.7 °C 60000 m 0 cm 0 min 0 W/m² 1019.2 hPa
01:48 22.2 °C 15.5 °C 66 % 7 km/h (9 km/h) 0 mm0 mm 24.6 °C 25.9 °C 25.8 °C 24.7 °C 60000 m 0 cm 0 min 0 W/m² 1019.2 hPa
01:42 21.8 °C 15.6 °C 68 % 7 km/h (10 km/h) 0 mm0 mm 24.7 °C 25.9 °C 25.8 °C 24.7 °C 60000 m 0 cm 0 min 0 W/m² 1019.1 hPa
01:36 21.5 °C 15.6 °C 69 % 5 km/h (8 km/h) 0 mm0 mm 24.7 °C 26 °C 25.8 °C 24.7 °C 60000 m 0 cm 0 min 0 W/m² 1019.2 hPa
01:30 20.7 °C 15.7 °C 73 % 4 km/h (5 km/h) 0 mm0 mm 24.8 °C 26 °C 25.8 °C 24.7 °C 19900 m 0 cm 0 min 0 W/m² 1019.2 hPa
01:24 20.7 °C 15.7 °C 73 % 5 km/h (7 km/h) 0 mm0 mm 24.8 °C 26 °C 25.8 °C 24.7 °C 60000 m 0 cm 0 min 0 W/m² 1019.1 hPa
01:18 20.6 °C 15.8 °C 74 % 6 km/h (7 km/h) 0 mm0 mm 24.8 °C 26.1 °C 25.8 °C 24.8 °C 60000 m 0 cm 0 min 0 W/m² 1019.1 hPa
01:12 20.4 °C 15.4 °C 73 % 5 km/h (6 km/h) 0 mm0 mm 24.9 °C 26.1 °C 25.8 °C 24.8 °C 60000 m 0 cm 0 min 0 W/m² 1019.1 hPa
01:06 20.5 °C 15.5 °C 73 % 2 km/h (4 km/h) 0 mm0 mm 24.9 °C 26.1 °C 25.8 °C 24.7 °C 19890 m 0 cm 0 min 0 W/m² 1019.1 hPa
01:00 20.8 °C 15.6 °C 72 % 2 km/h (3 km/h) 0 mm0 mm 25 °C 26.1 °C 25.8 °C 24.7 °C 19890 m 0 cm 0 min 0 W/m² 1019.1 hPa
00:54 21.3 °C 15.8 °C 71 % 2 km/h (3 km/h) 0 mm0 mm 25 °C 26.2 °C 25.8 °C 24.8 °C 19980 m 0 cm 0 min 0 W/m² 1019.2 hPa
00:48 21 °C 15.8 °C 72 % 0 km/h (2 km/h) 0 mm0 mm 25.1 °C 26.2 °C 25.8 °C 24.7 °C 3390 m 0 cm 0 min 0 W/m² 1019.2 hPa
00:42 20.9 °C 15.9 °C 73 % 0 km/h (3 km/h) 0 mm0 mm 25.1 °C 26.2 °C 25.8 °C 24.7 °C 2950 m 0 cm 0 min 0 W/m² 1019.1 hPa
00:36 21 °C 16 °C 73 % 2 km/h (3 km/h) 0 mm0 mm 25.2 °C 26.3 °C 25.8 °C 24.8 °C 18070 m 0 cm 0 min 0 W/m² 1019.1 hPa
00:30 21.4 °C 16.1 °C 72 % 0 km/h (3 km/h) 0 mm0 mm 25.2 °C 26.3 °C 25.8 °C 24.8 °C 60000 m 0 cm 0 min 0 W/m² 1019.1 hPa
00:24 21.8 °C 17.2 °C 75 % 0 km/h (3 km/h) 0 mm0 mm 25.3 °C 26.3 °C 25.8 °C 24.8 °C 60000 m 0 cm 0 min 0 W/m² 1019 hPa
00:18 21.8 °C 15.6 °C 68 % 3 km/h (6 km/h) 0 mm0 mm 25.3 °C 26.3 °C 25.8 °C 24.7 °C 60000 m 0 cm 0 min 0 W/m² 1019.1 hPa
00:12 22.1 °C 15.9 °C 68 % 4 km/h (6 km/h) 0 mm0 mm 25.3 °C 26.4 °C 25.8 °C 24.7 °C 60000 m 0 cm 0 min 0 W/m² 1019 hPa
00:06 22.3 °C 17 °C 72 % 3 km/h (4 km/h) 0 mm0 mm 25.4 °C 26.4 °C 25.8 °C 24.7 °C 19980 m 0 cm 0 min 0 W/m² 1019 hPa
00:00 22.4 °C 16.4 °C 69 % 4 km/h (5 km/h) 0 mm0 mm 25.4 °C 26.4 °C 25.8 °C 24.7 °C 19350 m 0 cm 0 min 0 W/m² 1019.1 hPa 7 Octas

Données via Météo-France

Relevés météo à Montpellier-Aeroport

Cette page rassemble les observations de la station de Montpellier-Aeroport : température, humidité, vent, précipitations et pression atmosphérique. Les graphiques facilitent le suivi de la journée, tandis que le tableau donne accès aux mesures horaires et infra-horaires disponibles.

Pour replacer ces mesures dans leur contexte, consultez la climatologie de Montpellier-Aeroport ainsi que ses normales et records. Retrouvez aussi la carte des observations météo en temps réel.